EGPD

Aberdeen Dyce Airport

Aberdeen, United Kingdom
METAR EGPD 151320Z 31008KT 9999 6000S -SHRASN SCT011CB BKN020 02/01 Q1005 RESHSN RESHRA RESN NOSIG
Observed Flight Rules
Dec-15 @ 13:20 UTC (46 minutes ago) Marginal Visual Flight Rules
Wind Visibility Clouds Conditions
310° at 8 knots 10,000+ meters
  • Scattered at 1,100' AGL
  • Broken at 2,000' AGL
  • Light Rain
  • Rain
  • Snow
Temperatures Readings
Current 2°C / 36°F
Dewpoint 1°C / 34°F
Humidity 93%
Altimeter 29.68" Hg
Pressure 1005 hPa
Elevation 65
METAR EGPD 151320Z 31008KT 9999 6000S -SHRASN SCT011CB BKN020 02/01 Q1005 RESHSN RESHRA RESN NOSIG
Observed Flight Rules
Dec-15 @ 13:20 UTC
(46 minutes ago)
MVFR
Wind Visibility
310° at 8 knots 10,000+ meters
Clouds
  • Scattered at 1,100' AGL
  • Broken at 2,000' AGL
Conditions
  • Light Rain
  • Rain
  • Snow
Temperature Dewpoint
2°C / 36°F 1°C / 34°F
Humidity Altimeter Pressure
93% 29.68" Hg 1005 hPa